You are not logged in, Click here to log in
Deputado Luiz Eduardo Magalhães International Airport / SBSV Salvador
ICAO: SBSV Country: Salvador
Latitude: -12.9086 Longitude: -38.3225
Total Arrivals: 2 Total Departures: 2
Latest Arrival: FS9017 (SBFZ-SBSV)Arthur. Kung Latest Departure: FS9018 (SBSV-SBRJ)Arthur. Kung
Scenery: http://en.wikipedia.org/wiki/Marechal_Cunha_Machado_International_Airport
METAR : SBSV 240600Z 10008KT 9999 SCT017 26/22 Q1013

Deputado Luiz Eduardo Magalhães International Airport

You are accessing this site from IP address 34.201.9.19. Virtual Airline. CMS by phpVMS.Website designed by Zumeweb and edited by Theo Bearman.
There is 0 User(s) Online: | and 21 Guest(s) Online.
All information on this site is for fight simulation purposes only. This site is for flight logging for pilots of Virtual Airline&模擬飛行論壇 FlySim only.